TimeEST,TemperatureF,Dew PointF,Humidity,Sea Level PressureIn,VisibilityMPH,Wind Direction,Wind SpeedMPH,Gust SpeedMPH,PrecipitationIn,Events,Conditions,WindDirDegrees,DateUTC
12:15 AM,39.2,35.6,87,30.19,10.0,SSW,4.6,-,N/A,,Clear,200,2013-12-17 05:15:00
12:55 AM,39.2,35.6,87,30.17,10.0,South,5.8,-,N/A,,Clear,190,2013-12-17 05:55:00
1:15 AM,39.2,35.6,87,30.17,10.0,SSW,4.6,-,N/A,,Clear,200,2013-12-17 06:15:00
1:35 AM,39.2,35.6,87,30.16,10.0,South,5.8,-,N/A,,Clear,190,2013-12-17 06:35:00
1:55 AM,39.2,33.8,81,30.17,10.0,SSW,5.8,-,N/A,,Clear,200,2013-12-17 06:55:00
2:15 AM,39.2,35.6,87,30.17,10.0,SSW,5.8,-,N/A,,Clear,200,2013-12-17 07:15:00
2:35 AM,39.2,35.6,87,30.17,10.0,SSW,4.6,-,N/A,,Clear,200,2013-12-17 07:35:00
2:55 AM,39.2,35.6,87,30.17,10.0,SSW,4.6,-,N/A,,Clear,200,2013-12-17 07:55:00
3:15 AM,39.2,35.6,87,30.18,10.0,SSW,5.8,-,N/A,,Clear,210,2013-12-17 08:15:00
3:35 AM,39.2,35.6,87,30.18,10.0,SSW,5.8,-,N/A,,Clear,200,2013-12-17 08:35:00
3:55 AM,37.4,35.6,93,30.17,10.0,SSW,5.8,-,N/A,,Clear,200,2013-12-17 08:55:00
4:15 AM,37.4,33.8,87,30.16,10.0,South,5.8,-,N/A,,Clear,190,2013-12-17 09:15:00
4:35 AM,37.4,33.8,87,30.16,10.0,South,5.8,-,N/A,,Clear,190,2013-12-17 09:35:00
4:55 AM,37.4,33.8,87,30.16,10.0,South,5.8,-,N/A,,Clear,190,2013-12-17 09:55:00
5:15 AM,37.4,33.8,87,30.16,10.0,South,5.8,-,N/A,,Clear,190,2013-12-17 10:15:00
5:35 AM,37.4,33.8,87,30.16,10.0,SSW,4.6,-,N/A,,Clear,210,2013-12-17 10:35:00
5:55 AM,37.4,32.0,81,30.17,10.0,SSW,5.8,-,N/A,,Clear,210,2013-12-17 10:55:00
6:15 AM,37.4,33.8,87,30.16,10.0,SSW,5.8,-,N/A,,Clear,200,2013-12-17 11:15:00
6:35 AM,35.6,32.0,87,30.16,10.0,SSW,3.5,-,N/A,,Clear,210,2013-12-17 11:35:00
6:55 AM,35.6,30.2,81,30.16,10.0,SSW,3.5,-,N/A,,Clear,210,2013-12-17 11:55:00
7:15 AM,35.6,30.2,81,30.17,10.0,SSW,3.5,-,N/A,,Clear,200,2013-12-17 12:15:00
7:35 AM,35.6,30.2,81,30.18,9.0,SW,4.6,-,N/A,,Clear,220,2013-12-17 12:35:00
7:55 AM,35.6,33.8,93,30.17,10.0,SSW,4.6,-,N/A,,Clear,200,2013-12-17 12:55:00
8:15 AM,39.2,35.6,87,30.16,10.0,SSW,4.6,-,N/A,,Clear,200,2013-12-17 13:15:00
8:35 AM,42.8,37.4,81,30.16,10.0,SSW,6.9,-,N/A,,Clear,200,2013-12-17 13:35:00
8:55 AM,44.6,35.6,71,30.17,10.0,SSW,6.9,-,N/A,,Clear,210,2013-12-17 13:55:00
9:15 AM,46.4,37.4,71,30.17,10.0,SSW,6.9,-,N/A,,Clear,210,2013-12-17 14:15:00
9:35 AM,46.4,37.4,71,30.17,10.0,SW,5.8,-,N/A,,Clear,220,2013-12-17 14:35:00
9:55 AM,48.2,37.4,66,30.17,10.0,WSW,6.9,-,N/A,,Clear,240,2013-12-17 14:55:00
10:15 AM,51.8,37.4,58,30.17,10.0,South,5.8,-,N/A,,Clear,190,2013-12-17 15:15:00
10:35 AM,51.8,37.4,58,30.16,10.0,SSW,5.8,-,N/A,,Clear,200,2013-12-17 15:35:00
10:55 AM,53.6,37.4,54,30.15,10.0,South,5.8,-,N/A,,Clear,180,2013-12-17 15:55:00
11:15 AM,55.4,37.4,51,30.13,10.0,South,5.8,-,N/A,,Clear,190,2013-12-17 16:15:00
11:35 AM,55.4,37.4,51,30.12,10.0,South,6.9,-,N/A,,Clear,180,2013-12-17 16:35:00
11:55 AM,57.2,37.4,48,30.10,10.0,South,6.9,-,N/A,,Clear,190,2013-12-17 16:55:00
12:15 PM,60.8,39.2,45,30.09,10.0,South,6.9,-,N/A,,Clear,190,2013-12-17 17:15:00
12:35 PM,60.8,37.4,42,30.08,10.0,SSW,5.8,-,N/A,,Clear,200,2013-12-17 17:35:00
12:55 PM,62.6,37.4,39,30.07,10.0,South,10.4,-,N/A,,Clear,180,2013-12-17 17:55:00
1:15 PM,62.6,37.4,39,30.06,10.0,SSW,9.2,-,N/A,,Clear,200,2013-12-17 18:15:00
1:35 PM,62.6,37.4,39,30.05,10.0,South,11.5,-,N/A,,Clear,190,2013-12-17 18:35:00
1:55 PM,62.6,37.4,39,30.04,10.0,SSW,10.4,18.4,N/A,,Clear,210,2013-12-17 18:55:00
2:15 PM,62.6,39.2,42,30.04,10.0,SSW,12.7,18.4,N/A,,Clear,200,2013-12-17 19:15:00
2:35 PM,62.6,37.4,39,30.02,10.0,South,13.8,-,N/A,,Clear,190,2013-12-17 19:35:00
2:55 PM,62.6,37.4,39,30.02,10.0,South,11.5,-,N/A,,Clear,180,2013-12-17 19:55:00
3:15 PM,62.6,37.4,39,30.01,10.0,South,12.7,-,N/A,,Clear,190,2013-12-17 20:15:00
3:35 PM,62.6,37.4,39,30.01,10.0,South,9.2,-,N/A,,Clear,190,2013-12-17 20:35:00
3:55 PM,62.6,37.4,39,30.00,10.0,South,12.7,16.1,N/A,,Clear,180,2013-12-17 20:55:00
4:15 PM,60.8,37.4,42,30.00,10.0,South,11.5,-,N/A,,Clear,190,2013-12-17 21:15:00
4:35 PM,59.0,37.4,45,30.00,10.0,South,11.5,-,N/A,,Clear,190,2013-12-17 21:35:00
4:55 PM,57.2,37.4,48,30.00,10.0,South,10.4,-,N/A,,Clear,190,2013-12-17 21:55:00
5:15 PM,55.4,37.4,51,30.00,10.0,South,9.2,-,N/A,,Clear,180,2013-12-17 22:15:00
5:35 PM,55.4,37.4,51,29.99,10.0,South,11.5,-,N/A,,Clear,180,2013-12-17 22:35:00
5:55 PM,53.6,37.4,54,29.99,10.0,South,10.4,-,N/A,,Clear,170,2013-12-17 22:55:00
6:15 PM,53.6,37.4,54,29.98,10.0,South,11.5,-,N/A,,Clear,170,2013-12-17 23:15:00
6:35 PM,53.6,37.4,54,29.99,10.0,South,12.7,-,N/A,,Clear,180,2013-12-17 23:35:00
6:55 PM,53.6,37.4,54,29.99,10.0,South,13.8,-,N/A,,Clear,190,2013-12-17 23:55:00
7:15 PM,51.8,37.4,58,29.98,10.0,South,12.7,-,N/A,,Clear,190,2013-12-18 00:15:00
7:35 PM,51.8,37.4,58,29.98,10.0,South,11.5,-,N/A,,Clear,190,2013-12-18 00:35:00
7:55 PM,51.8,37.4,58,29.98,10.0,South,10.4,-,N/A,,Clear,190,2013-12-18 00:55:00
8:15 PM,50.0,37.4,62,29.97,10.0,South,11.5,-,N/A,,Clear,190,2013-12-18 01:15:00
8:35 PM,50.0,37.4,62,29.98,10.0,SSW,10.4,-,N/A,,Clear,200,2013-12-18 01:35:00
8:55 PM,51.8,39.2,62,29.97,10.0,SSW,12.7,-,N/A,,Clear,200,2013-12-18 01:55:00
9:15 PM,51.8,39.2,62,29.98,10.0,SSW,11.5,17.3,N/A,,Clear,200,2013-12-18 02:15:00
9:35 PM,51.8,37.4,58,29.98,10.0,SSW,11.5,19.6,N/A,,Clear,210,2013-12-18 02:35:00
9:55 PM,51.8,37.4,58,29.98,10.0,SSW,10.4,-,N/A,,Clear,210,2013-12-18 02:55:00
10:15 PM,51.8,37.4,58,29.99,10.0,SSW,10.4,17.3,N/A,,Clear,210,2013-12-18 03:15:00
10:35 PM,51.8,37.4,58,29.99,10.0,SW,11.5,16.1,N/A,,Clear,220,2013-12-18 03:35:00
10:55 PM,51.8,35.6,54,30.00,10.0,SW,11.5,-,N/A,,Clear,220,2013-12-18 03:55:00
11:15 PM,51.8,35.6,54,30.00,10.0,SW,12.7,17.3,N/A,,Clear,220,2013-12-18 04:15:00
11:35 PM,50.0,35.6,58,30.00,10.0,SW,10.4,-,N/A,,Clear,220,2013-12-18 04:35:00
11:55 PM,50.0,33.8,54,30.01,10.0,SW,9.2,-,N/A,,Clear,230,2013-12-18 04:55:00